createdAt,value
2018-11-06T00:00:42.180Z,90.73
2018-11-06T00:03:15.592Z,89.64
2018-11-06T00:05:43.891Z,89.45
2018-11-06T00:08:12.129Z,89.78
2018-11-06T00:10:40.389Z,89.68
2018-11-06T00:13:08.602Z,90.06
2018-11-06T00:15:36.870Z,90.16
2018-11-06T00:18:05.271Z,90.86
2018-11-06T00:20:33.493Z,91.17
2018-11-06T00:23:01.725Z,91.14
2018-11-06T00:25:29.989Z,90.15
2018-11-06T00:27:58.222Z,91.73
2018-11-06T00:30:26.442Z,90.30
2018-11-06T00:32:54.676Z,91.63
2018-11-06T00:35:22.902Z,90.34
2018-11-06T00:37:51.222Z,91.30
2018-11-06T00:40:19.442Z,91.59
2018-11-06T00:42:47.654Z,90.06
2018-11-06T00:45:16.725Z,91.00
2018-11-06T00:47:44.933Z,90.78
2018-11-06T00:50:13.722Z,92.25
2018-11-06T00:52:42.989Z,91.09
2018-11-06T00:55:11.389Z,92.56
2018-11-06T00:57:41.366Z,92.43
2018-11-06T01:00:12.097Z,92.08
2018-11-06T01:02:40.365Z,93.11
2018-11-06T01:05:10.185Z,93.23
2018-11-06T01:07:38.408Z,93.04
2018-11-06T01:10:08.073Z,93.02
2018-11-06T01:12:36.378Z,92.76
2018-11-06T01:15:05.026Z,93.23
2018-11-06T01:17:33.318Z,93.23
2018-11-06T01:20:01.545Z,92.47
2018-11-06T01:22:30.577Z,92.07
2018-11-06T01:24:59.999Z,92.05
2018-11-06T01:27:28.366Z,92.99
2018-11-06T01:29:56.682Z,92.24
2018-11-06T01:32:24.903Z,93.24
2018-11-06T01:34:53.111Z,92.20
2018-11-06T01:37:21.346Z,92.20
2018-11-06T01:39:49.585Z,91.56
2018-11-06T01:42:17.821Z,92.54
2018-11-06T01:44:46.038Z,92.69
2018-11-06T01:47:14.265Z,92.51
2018-11-06T01:49:42.509Z,92.95
2018-11-06T01:52:10.730Z,92.87
2018-11-06T01:54:38.970Z,93.09
2018-11-06T01:57:07.166Z,93.78
2018-11-06T01:59:35.369Z,94.03
2018-11-06T02:02:03.596Z,93.87
2018-11-06T02:04:31.817Z,93.06
2018-11-06T02:07:00.062Z,92.95
2018-11-06T02:09:28.267Z,91.90
2018-11-06T02:11:56.510Z,92.27
2018-11-06T02:14:24.734Z,93.37
2018-11-06T02:16:52.946Z,93.38
2018-11-06T02:19:21.141Z,94.66
2018-11-06T02:21:49.362Z,92.87
2018-11-06T02:24:17.566Z,92.31
2018-11-06T02:26:45.789Z,91.94
2018-11-06T02:29:14.013Z,92.77
2018-11-06T02:31:42.242Z,92.28
2018-11-06T02:34:10.463Z,93.27
2018-11-06T02:36:38.714Z,95.01
2018-11-06T02:39:08.098Z,94.61
2018-11-06T02:41:36.349Z,93.98
2018-11-06T02:44:04.592Z,94.29
2018-11-06T02:46:32.841Z,96.37
2018-11-06T02:49:01.103Z,95.41
2018-11-06T02:51:29.434Z,96.05
2018-11-06T02:53:57.666Z,95.77
2018-11-06T02:56:25.897Z,96.07
2018-11-06T02:58:54.101Z,96.16
2018-11-06T03:01:22.322Z,96.54
2018-11-06T03:03:50.558Z,95.35
2018-11-06T03:06:18.757Z,95.77
2018-11-06T03:08:46.986Z,95.13
2018-11-06T03:11:15.222Z,94.96
2018-11-06T03:13:43.473Z,95.28
2018-11-06T03:16:11.706Z,95.41
2018-11-06T03:18:39.917Z,94.94
2018-11-06T03:21:08.146Z,94.99
2018-11-06T03:23:36.350Z,94.23
2018-11-06T03:26:04.590Z,93.80
2018-11-06T03:28:32.805Z,94.62
2018-11-06T03:31:01.030Z,94.90
2018-11-06T03:33:29.257Z,94.92
2018-11-06T03:35:57.483Z,94.98
2018-11-06T03:38:25.682Z,95.23
2018-11-06T03:40:53.911Z,96.45
2018-11-06T03:43:26.486Z,96.17
2018-11-06T03:45:54.693Z,95.78
2018-11-06T03:48:22.932Z,95.48
2018-11-06T03:50:51.146Z,96.05
2018-11-06T03:53:19.361Z,96.28
2018-11-06T03:55:47.593Z,96.23
2018-11-06T03:58:15.838Z,97.44
2018-11-06T04:00:44.058Z,97.20
2018-11-06T04:03:12.314Z,96.21
2018-11-06T04:05:40.524Z,97.12
2018-11-06T04:08:08.753Z,97.41
2018-11-06T04:10:36.991Z,95.96
2018-11-06T04:13:05.239Z,95.27
2018-11-06T04:15:33.461Z,95.44
2018-11-06T04:18:01.666Z,96.71
2018-11-06T04:20:29.884Z,96.13
2018-11-06T04:22:58.126Z,96.73
2018-11-06T04:25:26.322Z,96.05
2018-11-06T04:27:54.539Z,95.84
2018-11-06T04:30:22.771Z,95.03
2018-11-06T04:32:50.994Z,94.57
2018-11-06T04:35:19.238Z,94.79
2018-11-06T04:37:47.451Z,95.26
2018-11-06T04:40:15.657Z,95.39
2018-11-06T04:42:44.014Z,95.09
2018-11-06T04:45:12.920Z,94.76
2018-11-06T04:47:41.153Z,95.31
2018-11-06T04:50:10.973Z,94.43
2018-11-06T04:52:39.357Z,94.19
2018-11-06T04:55:09.020Z,93.85
2018-11-06T04:57:37.238Z,93.20
2018-11-06T05:00:06.815Z,93.56
2018-11-06T05:02:35.102Z,92.64
2018-11-06T05:05:03.379Z,92.44
2018-11-06T05:07:31.625Z,92.86
2018-11-06T05:09:59.834Z,93.23
2018-11-06T05:12:28.074Z,93.33
2018-11-06T05:14:57.327Z,93.68
2018-11-06T05:17:25.554Z,95.15
2018-11-06T05:19:53.832Z,94.79
2018-11-06T05:22:22.062Z,94.76
2018-11-06T05:24:50.348Z,94.59
2018-11-06T05:27:18.576Z,94.56
2018-11-06T05:29:46.778Z,94.26
2018-11-06T05:32:15.031Z,94.00
2018-11-06T05:34:43.514Z,94.30
2018-11-06T05:37:11.650Z,94.55
2018-11-06T05:39:51.006Z,94.93
2018-11-06T05:42:19.213Z,95.07
2018-11-06T05:44:47.589Z,94.84
2018-11-06T05:47:15.789Z,94.73
2018-11-06T05:49:44.011Z,95.56
2018-11-06T05:52:12.238Z,94.95
2018-11-06T05:54:40.551Z,94.17
2018-11-06T05:57:08.815Z,95.12
2018-11-06T05:59:37.025Z,94.83
2018-11-06T06:02:05.323Z,95.58
2018-11-06T06:04:33.530Z,95.91
2018-11-06T06:07:01.768Z,95.51
2018-11-06T06:09:29.974Z,94.60
2018-11-06T06:11:58.329Z,94.03
2018-11-06T06:14:26.548Z,93.68
2018-11-06T06:16:54.829Z,93.21
2018-11-06T06:19:22.970Z,92.81
2018-11-06T06:21:51.214Z,92.12
2018-11-06T06:24:19.456Z,92.44
2018-11-06T06:26:47.669Z,92.09
2018-11-06T06:29:15.938Z,91.84
2018-11-06T06:31:44.163Z,91.04
2018-11-06T06:34:12.414Z,91.15
2018-11-06T06:36:40.644Z,91.93
2018-11-06T06:39:09.826Z,91.65
2018-11-06T06:41:38.306Z,92.42
2018-11-06T06:44:06.726Z,91.55
2018-11-06T06:46:34.964Z,92.09
2018-11-06T06:49:03.185Z,92.02
2018-11-06T06:51:31.434Z,91.21
2018-11-06T06:53:59.891Z,90.86
2018-11-06T06:56:28.031Z,90.55
2018-11-06T06:58:57.163Z,91.62
2018-11-06T07:01:25.488Z,90.94
2018-11-06T07:03:54.113Z,90.05
2018-11-06T07:06:22.338Z,89.64
2018-11-06T07:08:50.585Z,89.92
2018-11-06T07:11:18.870Z,89.47
2018-11-06T07:13:47.100Z,89.21
2018-11-06T07:16:15.543Z,89.32
2018-11-06T07:18:43.775Z,89.10
2018-11-06T07:21:11.987Z,89.79
2018-11-06T07:23:40.201Z,88.99
2018-11-06T07:26:08.446Z,88.03
2018-11-06T07:28:36.707Z,87.02
2018-11-06T07:31:04.902Z,86.17
2018-11-06T07:33:33.132Z,85.32
2018-11-06T07:36:01.346Z,85.15
2018-11-06T07:38:29.591Z,84.30
2018-11-06T07:40:57.866Z,83.65
2018-11-06T07:43:26.069Z,83.49
2018-11-06T07:45:54.303Z,83.59
2018-11-06T07:48:22.589Z,82.90
2018-11-06T07:50:50.839Z,82.88
2018-11-06T07:53:19.115Z,82.14
2018-11-06T07:55:47.389Z,82.58
2018-11-06T07:58:15.570Z,82.85
2018-11-06T08:00:43.800Z,82.86
2018-11-06T08:03:12.155Z,83.61
2018-11-06T08:05:40.368Z,83.10
2018-11-06T08:08:08.597Z,83.39
2018-11-06T08:10:36.876Z,82.12
2018-11-06T08:13:05.424Z,80.70
2018-11-06T08:15:33.662Z,81.13
2018-11-06T08:18:01.909Z,80.12
2018-11-06T08:20:30.140Z,81.08
2018-11-06T08:22:58.337Z,79.90
2018-11-06T08:25:26.566Z,81.13
2018-11-06T08:27:54.912Z,81.30
2018-11-06T08:30:23.103Z,80.21
2018-11-06T08:32:51.480Z,80.78
2018-11-06T08:35:19.483Z,81.37
2018-11-06T08:37:47.714Z,80.85
2018-11-06T08:40:17.163Z,81.88
2018-11-06T08:42:45.391Z,81.82
2018-11-06T08:45:14.778Z,82.74
2018-11-06T08:47:43.892Z,83.53
2018-11-06T08:50:14.610Z,83.68
2018-11-06T08:52:42.945Z,83.04
2018-11-06T08:55:12.287Z,83.59
2018-11-06T08:57:41.277Z,83.37
2018-11-06T09:00:11.604Z,83.24
2018-11-06T09:02:39.925Z,81.64
2018-11-06T09:05:10.102Z,82.75
2018-11-06T09:07:38.467Z,81.60
2018-11-06T09:10:07.799Z,82.12
2018-11-06T09:12:36.149Z,82.09
2018-11-06T09:15:04.590Z,81.49
2018-11-06T09:17:32.833Z,82.11
2018-11-06T09:20:01.086Z,81.38
2018-11-06T09:22:29.316Z,81.28
2018-11-06T09:24:57.578Z,81.85
2018-11-06T09:27:32.523Z,80.06
2018-11-06T09:30:00.771Z,80.63
2018-11-06T09:32:29.023Z,80.01
2018-11-06T09:34:57.297Z,80.17
2018-11-06T09:37:25.494Z,80.39
2018-11-06T09:39:53.770Z,79.67
2018-11-06T09:42:21.991Z,79.57
2018-11-06T09:44:50.281Z,78.99
2018-11-06T09:47:18.566Z,79.58
2018-11-06T09:49:46.858Z,78.91
2018-11-06T09:52:15.395Z,78.41
2018-11-06T09:54:43.623Z,78.35
2018-11-06T09:57:11.871Z,78.46
2018-11-06T09:59:40.104Z,78.46
2018-11-06T10:02:08.358Z,77.77
2018-11-06T10:04:36.570Z,78.80
2018-11-06T10:07:05.658Z,78.36
2018-11-06T10:09:33.542Z,79.00
2018-11-06T10:12:01.804Z,79.54
2018-11-06T10:14:31.107Z,79.36
2018-11-06T10:16:59.350Z,80.32
2018-11-06T10:19:27.570Z,80.57
2018-11-06T10:21:58.040Z,79.92
2018-11-06T10:24:26.265Z,81.69
2018-11-06T10:26:54.474Z,80.14
2018-11-06T10:29:22.710Z,80.86
2018-11-06T10:31:50.941Z,79.89
2018-11-06T10:34:19.201Z,80.09
2018-11-06T10:36:47.455Z,79.25
2018-11-06T10:39:16.761Z,78.56
2018-11-06T10:41:45.039Z,79.50
2018-11-06T10:44:18.314Z,78.75
2018-11-06T10:46:46.525Z,78.37
2018-11-06T10:49:15.294Z,78.57
2018-11-06T10:51:43.550Z,78.61
2018-11-06T10:54:12.738Z,79.29
2018-11-06T10:56:43.078Z,77.87
2018-11-06T10:59:11.382Z,77.17
2018-11-06T11:01:46.033Z,76.55
2018-11-06T11:04:16.828Z,76.74
2018-11-06T11:06:45.118Z,77.43
2018-11-06T11:09:13.456Z,76.66
2018-11-06T11:11:42.768Z,76.12
2018-11-06T11:14:10.994Z,77.80
2018-11-06T11:16:39.231Z,76.96
2018-11-06T11:19:07.463Z,75.12
2018-11-06T11:21:35.782Z,74.58
2018-11-06T11:24:04.053Z,74.95
2018-11-06T11:26:32.302Z,74.87
2018-11-06T11:29:00.542Z,74.66
2018-11-06T11:31:28.886Z,74.02
2018-11-06T11:33:57.225Z,73.90
2018-11-06T11:36:25.435Z,72.57
2018-11-06T11:38:53.655Z,72.87
2018-11-06T11:41:23.014Z,72.40
2018-11-06T11:43:51.235Z,70.79
2018-11-06T11:46:19.478Z,72.12
2018-11-06T11:48:47.748Z,71.93
2018-11-06T11:51:18.089Z,73.67
2018-11-06T11:53:46.350Z,72.69
2018-11-06T11:56:14.569Z,72.44
2018-11-06T11:58:42.801Z,73.20
2018-11-06T12:01:11.025Z,71.75
2018-11-06T12:03:39.242Z,71.68
2018-11-06T12:06:07.474Z,71.21
2018-11-06T12:08:35.754Z,70.56
2018-11-06T12:11:03.987Z,71.78
2018-11-06T12:13:32.226Z,71.36
2018-11-06T12:16:00.442Z,71.28
2018-11-06T12:18:28.718Z,70.39
2018-11-06T12:20:56.940Z,70.44
2018-11-06T12:23:25.171Z,69.75
2018-11-06T12:25:53.526Z,70.01
2018-11-06T12:28:21.778Z,69.33
2018-11-06T12:30:50.003Z,70.06
2018-11-06T12:33:25.123Z,69.01
2018-11-06T12:35:53.348Z,69.18
2018-11-06T12:38:21.576Z,68.34
2018-11-06T12:40:49.818Z,67.41
2018-11-06T12:43:18.077Z,67.63
2018-11-06T12:45:46.287Z,67.24
2018-11-06T12:48:14.506Z,67.74
2018-11-06T12:50:42.737Z,68.01
2018-11-06T12:53:12.043Z,67.11
2018-11-06T12:55:40.286Z,66.77
2018-11-06T12:58:08.522Z,67.19
2018-11-06T13:00:37.014Z,66.73
2018-11-06T13:03:05.979Z,66.54
2018-11-06T13:05:34.259Z,67.44
2018-11-06T13:08:02.494Z,66.30
2018-11-06T13:10:30.731Z,66.27
2018-11-06T13:12:59.026Z,67.05
2018-11-06T13:15:27.305Z,67.10
2018-11-06T13:17:55.498Z,67.05
2018-11-06T13:20:23.714Z,66.82
2018-11-06T13:22:51.951Z,66.91
2018-11-06T13:25:20.169Z,66.41
2018-11-06T13:27:48.375Z,66.34
2018-11-06T13:30:17.908Z,66.38
2018-11-06T13:32:46.858Z,66.72
2018-11-06T13:35:16.231Z,66.77
2018-11-06T13:37:44.499Z,66.85
2018-11-06T13:40:14.066Z,66.51
2018-11-06T13:42:42.454Z,66.42
2018-11-06T13:45:25.912Z,66.78
2018-11-06T13:47:55.039Z,66.87
2018-11-06T13:50:23.286Z,66.17
2018-11-06T13:52:51.528Z,66.73
2018-11-06T13:55:19.759Z,67.03
2018-11-06T13:57:48.077Z,66.41
2018-11-06T14:00:17.978Z,67.02
2018-11-06T14:02:46.363Z,67.73
2018-11-06T14:05:14.921Z,67.36
2018-11-06T14:07:43.253Z,67.31
2018-11-06T14:10:11.490Z,66.91
2018-11-06T14:12:40.176Z,66.78
2018-11-06T14:15:08.492Z,66.69
2018-11-06T14:17:37.022Z,67.23
2018-11-06T14:20:06.629Z,67.62
2018-11-06T14:22:34.885Z,67.53
2018-11-06T14:25:03.135Z,68.23
2018-11-06T14:27:31.656Z,68.78
2018-11-06T14:29:59.833Z,67.77
2018-11-06T14:32:28.114Z,68.11
2018-11-06T14:34:56.449Z,68.07
2018-11-06T14:37:25.922Z,68.76
2018-11-06T14:39:54.169Z,68.69
2018-11-06T14:42:23.484Z,68.85
2018-11-06T14:44:51.687Z,69.95
2018-11-06T14:47:19.953Z,69.71
2018-11-06T14:49:48.165Z,70.11
2018-11-06T14:52:16.414Z,70.86
2018-11-06T14:54:44.658Z,70.38
2018-11-06T14:57:12.921Z,71.97
2018-11-06T14:59:41.174Z,72.27
2018-11-06T15:02:09.473Z,71.98
2018-11-06T15:04:37.719Z,72.91
2018-11-06T15:07:06.014Z,72.66
2018-11-06T15:09:34.292Z,73.21
2018-11-06T15:12:03.691Z,73.31
2018-11-06T15:14:32.030Z,73.07
2018-11-06T15:17:00.277Z,73.22
2018-11-06T15:19:28.567Z,73.59
2018-11-06T15:21:56.844Z,73.41
2018-11-06T15:24:25.080Z,73.02
2018-11-06T15:26:53.306Z,72.99
2018-11-06T15:29:21.521Z,72.80
2018-11-06T15:31:49.764Z,73.47
2018-11-06T15:34:17.978Z,73.09
2018-11-06T15:36:46.222Z,74.23
2018-11-06T15:39:14.465Z,74.06
2018-11-06T15:41:42.738Z,74.14
2018-11-06T15:44:10.929Z,73.87
2018-11-06T15:46:39.166Z,73.93
2018-11-06T15:49:07.573Z,74.85
2018-11-06T15:51:35.777Z,74.22
2018-11-06T15:54:04.049Z,75.07
2018-11-06T15:56:32.310Z,75.25
2018-11-06T15:59:00.546Z,75.46
2018-11-06T16:01:28.951Z,74.81
2018-11-06T16:03:57.240Z,75.56
2018-11-06T16:06:25.494Z,74.64
2018-11-06T16:08:53.737Z,75.07
2018-11-06T16:11:22.005Z,75.41
2018-11-06T16:13:50.249Z,75.18
2018-11-06T16:16:18.468Z,74.65
2018-11-06T16:18:47.039Z,74.33
2018-11-06T16:21:15.278Z,75.39
2018-11-06T16:23:43.493Z,75.05
2018-11-06T16:26:11.710Z,75.71
2018-11-06T16:28:39.934Z,75.56
2018-11-06T16:31:08.169Z,75.03
2018-11-06T16:33:37.038Z,75.88
2018-11-06T16:36:05.382Z,76.31
2018-11-06T16:38:33.622Z,76.48
2018-11-06T16:41:01.878Z,77.04
2018-11-06T16:43:30.126Z,77.66
2018-11-06T16:45:58.359Z,78.23
2018-11-06T16:48:26.688Z,77.54
2018-11-06T16:50:54.848Z,76.88
2018-11-06T16:53:23.053Z,77.42
2018-11-06T16:55:51.295Z,78.64
2018-11-06T16:58:19.508Z,77.11
2018-11-06T17:00:47.872Z,77.80
2018-11-06T17:03:15.980Z,77.93
2018-11-06T17:05:44.226Z,77.13
2018-11-06T17:08:12.454Z,78.08
2018-11-06T17:10:40.699Z,78.30
2018-11-06T17:13:08.908Z,77.47
2018-11-06T17:15:37.142Z,77.65
2018-11-06T17:18:06.102Z,77.07
2018-11-06T17:20:34.367Z,77.19
2018-11-06T17:23:02.583Z,77.52
2018-11-06T17:25:30.875Z,77.24
2018-11-06T17:27:59.095Z,77.46
2018-11-06T17:30:27.325Z,78.42
2018-11-06T17:32:55.578Z,77.84
2018-11-06T17:35:23.802Z,77.41
2018-11-06T17:37:52.016Z,78.18
2018-11-06T17:40:21.175Z,78.68
2018-11-06T17:42:49.418Z,79.29
2018-11-06T17:45:19.130Z,80.34
2018-11-06T17:47:47.316Z,80.15
2018-11-06T17:50:16.373Z,80.10
2018-11-06T17:52:44.808Z,80.39
2018-11-06T17:55:14.547Z,80.50
2018-11-06T17:57:42.776Z,80.58
2018-11-06T18:00:14.485Z,80.17
2018-11-06T18:02:42.956Z,81.64
2018-11-06T18:05:12.397Z,80.96
2018-11-06T18:07:41.277Z,80.76
2018-11-06T18:10:10.674Z,81.32
2018-11-06T18:12:38.906Z,82.67
2018-11-06T18:15:07.222Z,82.79
2018-11-06T18:17:35.518Z,82.00
2018-11-06T18:20:03.763Z,81.99
2018-11-06T18:22:32.121Z,82.66
2018-11-06T18:25:00.380Z,82.10
2018-11-06T18:27:28.568Z,82.65
2018-11-06T18:29:56.850Z,82.41
2018-11-06T18:32:25.086Z,82.75
2018-11-06T18:34:53.297Z,82.38
2018-11-06T18:37:21.521Z,84.23
2018-11-06T18:39:49.766Z,83.52
2018-11-06T18:42:17.989Z,83.05
2018-11-06T18:44:46.239Z,82.46
2018-11-06T18:47:14.494Z,81.99
2018-11-06T18:49:42.829Z,82.18
2018-11-06T18:52:11.014Z,81.73
2018-11-06T18:54:39.277Z,82.41
2018-11-06T18:57:07.533Z,81.91
2018-11-06T18:59:35.873Z,81.63
2018-11-06T19:02:04.119Z,81.85
2018-11-06T19:04:32.488Z,81.56
2018-11-06T19:07:00.603Z,81.49
2018-11-06T19:09:28.830Z,81.30
2018-11-06T19:11:57.071Z,81.78
2018-11-06T19:14:25.307Z,81.08
2018-11-06T19:16:53.577Z,81.17
2018-11-06T19:19:21.741Z,81.04
2018-11-06T19:21:49.969Z,81.47
2018-11-06T19:24:18.228Z,81.54
2018-11-06T19:26:46.484Z,81.66
2018-11-06T19:29:14.747Z,82.02
2018-11-06T19:31:43.029Z,82.42
2018-11-06T19:34:11.410Z,82.39
2018-11-06T19:36:39.847Z,82.08
2018-11-06T19:39:09.841Z,80.96
2018-11-06T19:41:38.121Z,82.20
2018-11-06T19:44:06.706Z,82.24
2018-11-06T19:46:34.953Z,81.80
2018-11-06T19:49:03.196Z,81.54
2018-11-06T19:51:31.405Z,82.09
2018-11-06T19:53:59.656Z,81.59
2018-11-06T19:56:27.933Z,82.31
2018-11-06T19:58:56.111Z,82.43
2018-11-06T20:01:24.346Z,82.63
2018-11-06T20:03:52.562Z,82.09
2018-11-06T20:06:20.803Z,82.13
2018-11-06T20:08:49.122Z,81.92
2018-11-06T20:11:17.366Z,83.17
2018-11-06T20:13:45.614Z,82.82
2018-11-06T20:16:13.835Z,82.62
2018-11-06T20:18:42.405Z,81.99
2018-11-06T20:21:10.622Z,82.53
2018-11-06T20:23:38.882Z,81.81
2018-11-06T20:26:07.114Z,82.09
2018-11-06T20:28:35.350Z,82.40
2018-11-06T20:31:03.586Z,81.95
2018-11-06T20:33:33.590Z,82.60
2018-11-06T20:36:01.755Z,82.64
2018-11-06T20:38:30.031Z,83.07
2018-11-06T20:40:58.270Z,82.84
2018-11-06T20:43:26.507Z,82.36
2018-11-06T20:45:54.790Z,83.03
2018-11-06T20:48:23.024Z,82.69
2018-11-06T20:50:51.286Z,83.15
2018-11-06T20:53:19.589Z,83.01
2018-11-06T20:55:47.900Z,83.90
2018-11-06T20:58:16.085Z,84.89
2018-11-06T21:00:45.370Z,83.40
2018-11-06T21:03:13.650Z,83.80
2018-11-06T21:05:41.944Z,82.79
2018-11-06T21:08:10.115Z,84.00
2018-11-06T21:10:38.416Z,83.39
2018-11-06T21:13:06.605Z,83.10
2018-11-06T21:15:34.826Z,83.02
2018-11-06T21:18:03.167Z,83.65
2018-11-06T21:20:31.280Z,83.43
2018-11-06T21:22:59.521Z,83.00
2018-11-06T21:25:27.939Z,83.22
2018-11-06T21:27:56.038Z,82.64
2018-11-06T21:30:24.297Z,82.02
2018-11-06T21:32:53.435Z,82.88
2018-11-06T21:35:21.673Z,82.55
2018-11-06T21:37:49.923Z,82.86
2018-11-06T21:40:20.401Z,82.65
2018-11-06T21:42:49.083Z,82.94
2018-11-06T21:45:18.794Z,83.27
2018-11-06T21:47:47.929Z,83.12
2018-11-06T21:50:21.973Z,83.28
2018-11-06T21:52:50.435Z,83.23
2018-11-06T21:55:19.706Z,83.47
2018-11-06T21:57:47.958Z,82.55
2018-11-06T22:00:19.681Z,83.46
2018-11-06T22:02:48.272Z,82.01
2018-11-06T22:05:18.027Z,82.31
2018-11-06T22:07:46.479Z,82.78
2018-11-06T22:10:16.204Z,81.93
2018-11-06T22:12:45.061Z,81.99
2018-11-06T22:15:14.306Z,82.61
2018-11-06T22:17:42.566Z,81.19
2018-11-06T22:20:12.688Z,81.66
2018-11-06T22:22:42.525Z,82.09
2018-11-06T22:25:10.749Z,81.61
2018-11-06T22:27:39.059Z,82.32
2018-11-06T22:30:09.734Z,81.91
2018-11-06T22:32:37.967Z,81.45
2018-11-06T22:35:07.491Z,81.43
2018-11-06T22:37:35.722Z,81.74
2018-11-06T22:40:05.537Z,82.05
2018-11-06T22:42:33.779Z,81.68
2018-11-06T22:45:02.071Z,80.85
2018-11-06T22:47:30.329Z,80.50
2018-11-06T22:49:58.598Z,80.82
2018-11-06T22:52:28.512Z,81.65
2018-11-06T22:54:57.361Z,80.93
2018-11-06T22:57:32.355Z,80.82
2018-11-06T23:00:01.693Z,81.43
2018-11-06T23:02:30.006Z,81.07
2018-11-06T23:04:58.313Z,80.89
2018-11-06T23:07:36.147Z,81.42
2018-11-06T23:10:22.476Z,81.16
2018-11-06T23:12:50.640Z,81.15
2018-11-06T23:15:26.354Z,80.98
2018-11-06T23:17:55.505Z,82.20
2018-11-06T23:20:24.161Z,82.23
2018-11-06T23:22:56.734Z,81.62
2018-11-06T23:25:24.974Z,80.63
2018-11-06T23:27:53.241Z,81.53
2018-11-06T23:30:21.510Z,81.59
2018-11-06T23:32:49.816Z,81.74
2018-11-06T23:35:18.090Z,80.39
2018-11-06T23:37:46.359Z,81.27
2018-11-06T23:40:14.708Z,81.53
2018-11-06T23:42:42.966Z,80.63
2018-11-06T23:45:11.261Z,80.86
2018-11-06T23:47:39.498Z,80.32
2018-11-06T23:50:09.027Z,80.59
2018-11-06T23:52:37.264Z,81.32
2018-11-06T23:55:11.587Z,80.54
2018-11-06T23:57:43.403Z,80.25
